Terminal Aerodrome Forecast
Issued by NWS

Home | Current Version | Previous Version | Text Only | Print | Product List | Glossary On
Versions: 1 2 3 4 5 6 7 8 9 10 11 12 13 14 15
000
FTUS46 KMFR 241738
TAFOTH
TAF
KOTH 241738Z 2418/2518 17008KT P6SM SCT050 BKN120
     FM242100 20011KT 5SM -RA SCT020 OVC040
     FM250600 20006KT 4SM -RADZ BKN010 OVC015=

USA.gov is the U.S. government's official web portal to all federal, state and local government web resources and services.